Time;durP1;ratioP1;P1;durP2;ratioP2;P2;SDS_P1;SDS_P2;PMS_P1;PMS_P2;Temp;Humidity;BMP_temperature;BMP_pressure;BME280_temperature;BME280_humidity;BME280_pressure;Samples;Min_cycle;Max_cycle;Signal;HPM_P1;HPM_P2
2022/07/25 00:01:17;;;;;;;12.80;5.38;;;;;;;-148.14;100.00;65945.72;4988452;28;20069;-88
2022/07/25 00:03:45;;;;;;;9.15;5.38;;;;;;;-148.14;100.00;65945.72;5017323;28;20029;-89
2022/07/25 00:06:11;;;;;;;10.20;5.22;;;;;;;-148.14;100.00;65945.72;5009424;28;20037;-87
2022/07/25 00:08:36;;;;;;;11.05;4.93;;;;;;;-148.14;100.00;65945.72;5016779;28;20025;-88
2022/07/25 00:11:02;;;;;;;10.38;4.80;;;;;;;-148.14;100.00;65945.72;5021672;28;20053;-88
2022/07/25 00:13:28;;;;;;;9.93;5.35;;;;;;;-148.14;100.00;65945.72;5008842;28;20022;-89
2022/07/25 00:15:53;;;;;;;8.48;5.32;;;;;;;-148.14;100.00;65945.72;5009035;28;20607;-90
2022/07/25 00:18:19;;;;;;;10.68;5.45;;;;;;;-148.14;100.00;65945.72;5027417;28;20037;-87
2022/07/25 00:20:45;;;;;;;11.23;5.30;;;;;;;-148.14;100.00;65945.72;5011239;28;20032;-88
2022/07/25 00:23:11;;;;;;;10.60;5.00;;;;;;;-148.14;100.00;65945.72;5028475;28;20075;-87
2022/07/25 00:25:37;;;;;;;10.93;5.45;;;;;;;-148.14;100.00;65945.72;5028669;28;20050;-88
2022/07/25 00:28:03;;;;;;;9.75;5.22;;;;;;;-148.14;100.00;65945.72;5009167;28;20037;-87
2022/07/25 00:30:28;;;;;;;9.98;5.00;;;;;;;-148.14;100.00;65945.72;5006742;28;20035;-87
2022/07/25 00:32:54;;;;;;;12.85;5.20;;;;;;;-148.14;100.00;65945.72;4990754;28;20033;-90
2022/07/25 00:35:19;;;;;;;11.40;5.35;;;;;;;-148.14;100.00;65945.72;5023981;28;20083;-87
2022/07/25 00:37:45;;;;;;;11.85;5.18;;;;;;;-148.14;100.00;65945.72;5020969;28;20022;-89
2022/07/25 00:40:11;;;;;;;13.43;5.82;;;;;;;-148.14;100.00;65945.72;5021835;28;20419;-88
2022/07/25 00:42:37;;;;;;;15.23;5.65;;;;;;;-148.14;100.00;65945.72;5009945;28;20488;-88
2022/07/25 00:45:03;;;;;;;15.27;6.43;;;;;;;-148.14;100.00;65945.72;5006014;28;20033;-85
2022/07/25 00:47:30;;;;;;;10.52;5.35;;;;;;;-148.14;100.00;65945.72;5021504;28;20117;-85
2022/07/25 00:49:55;;;;;;;17.27;6.13;;;;;;;-148.14;100.00;65945.72;5007862;28;20436;-88
2022/07/25 00:52:23;;;;;;;14.75;5.90;;;;;;;-148.14;100.00;65945.72;5008290;28;20475;-86
2022/07/25 00:54:49;;;;;;;14.57;6.18;;;;;;;-148.14;100.00;65945.72;5025346;28;20029;-86
2022/07/25 00:57:15;;;;;;;10.70;5.38;;;;;;;-148.14;100.00;65945.72;5024341;28;20515;-87
2022/07/25 00:59:41;;;;;;;8.82;5.50;;;;;;;-148.14;100.00;65945.72;5022700;28;20068;-87
2022/07/25 01:02:07;;;;;;;17.55;6.10;;;;;;;-148.14;100.00;65945.72;5020051;28;20026;-88
2022/07/25 01:04:33;;;;;;;14.13;5.47;;;;;;;-148.14;100.00;65945.72;5023352;28;20036;-88
2022/07/25 01:06:59;;;;;;;12.50;5.63;;;;;;;-148.14;100.00;65945.72;5029991;28;20048;-86
2022/07/25 01:09:25;;;;;;;13.10;5.70;;;;;;;-148.14;100.00;65945.72;5007316;28;20034;-85
2022/07/25 01:11:50;;;;;;;9.25;5.65;;;;;;;-148.14;100.00;65945.72;5007660;28;20052;-85
2022/07/25 01:14:16;;;;;;;11.32;5.88;;;;;;;-148.14;100.00;65945.72;5026171;28;20025;-86
2022/07/25 01:16:42;;;;;;;16.77;5.90;;;;;;;-148.14;100.00;65945.72;5026297;28;20499;-86
2022/07/25 01:19:07;;;;;;;12.10;5.25;;;;;;;-148.14;100.00;65945.72;5022699;28;20026;-86
2022/07/25 01:21:36;;;;;;;11.48;5.13;;;;;;;-148.14;100.00;65945.72;5019688;28;20034;-88
2022/07/25 01:24:03;;;;;;;12.90;4.85;;;;;;;-148.14;100.00;65945.72;5022431;28;20037;-87
2022/07/25 01:26:29;;;;;;;12.73;5.18;;;;;;;-148.14;100.00;65945.72;5029790;28;20057;-86
2022/07/25 01:28:55;;;;;;;12.60;5.93;;;;;;;-148.14;100.00;65945.72;5025311;28;20040;-85
2022/07/25 01:31:21;;;;;;;15.13;5.22;;;;;;;-148.14;100.00;65945.72;5022057;28;20022;-86
2022/07/25 01:33:50;;;;;;;11.20;5.00;;;;;;;-148.14;100.00;65945.72;5024975;28;20025;-85
2022/07/25 01:36:16;;;;;;;10.68;5.25;;;;;;;-148.14;100.00;65945.72;5026721;28;20388;-85
2022/07/25 01:38:41;;;;;;;8.55;4.35;;;;;;;-148.14;100.00;65945.72;5007041;28;20030;-87
2022/07/25 01:41:07;;;;;;;10.75;5.57;;;;;;;-148.14;100.00;65945.72;5024952;28;20059;-84
2022/07/25 01:43:33;;;;;;;10.80;4.82;;;;;;;-148.14;100.00;65945.72;5011242;28;20050;-86
2022/07/25 01:45:58;;;;;;;17.00;4.95;;;;;;;-148.14;100.00;65945.72;4966743;28;20392;-87
2022/07/25 01:48:24;;;;;;;11.40;4.75;;;;;;;-148.14;100.00;65945.72;4988665;28;20475;-86
2022/07/25 01:50:50;;;;;;;12.15;5.53;;;;;;;-148.14;100.00;65945.72;5004504;28;20365;-89
2022/07/25 01:53:16;;;;;;;13.30;5.57;;;;;;;-148.14;100.00;65945.72;4981117;28;20478;-88
2022/07/25 01:55:44;;;;;;;13.38;4.88;;;;;;;-148.14;100.00;65945.72;5007211;28;20037;-87
2022/07/25 01:58:10;;;;;;;12.93;5.20;;;;;;;-148.14;100.00;65945.72;5002117;28;20030;-87
2022/07/25 02:00:35;;;;;;;12.75;5.00;;;;;;;-148.14;100.00;65945.72;4990478;28;20496;-87
2022/07/25 02:05:48;;;;;;;11.00;4.53;;;;;;;-148.14;100.00;65945.72;4984674;28;20385;-85
2022/07/25 02:08:14;;;;;;;10.35;5.47;;;;;;;-148.14;100.00;65945.72;4988554;28;20025;-87
2022/07/25 02:10:40;;;;;;;17.30;6.10;;;;;;;-148.14;100.00;65945.72;5002237;28;20038;-87
2022/07/25 02:13:06;;;;;;;15.60;5.13;;;;;;;-148.14;100.00;65945.72;5001497;28;20380;-85
2022/07/25 02:15:32;;;;;;;9.68;4.60;;;;;;;-148.14;100.00;65945.72;4986448;28;20025;-89
2022/07/25 02:17:57;;;;;;;15.05;5.03;;;;;;;-148.14;100.00;65945.72;5006969;28;20026;-88
2022/07/25 02:20:23;;;;;;;10.85;4.88;;;;;;;-148.14;100.00;65945.72;5007900;28;20100;-86
2022/07/25 02:22:48;;;;;;;10.85;4.82;;;;;;;-148.14;100.00;65945.72;5005835;28;20076;-87
2022/07/25 02:25:14;;;;;;;12.70;5.00;;;;;;;-148.14;100.00;65945.72;5008333;28;20040;-87
2022/07/25 02:27:39;;;;;;;12.27;4.65;;;;;;;-148.14;100.00;65945.72;4986452;28;20065;-86
2022/07/25 02:30:06;;;;;;;10.85;4.72;;;;;;;-148.14;100.00;65945.72;4984831;28;20056;-87
2022/07/25 02:32:31;;;;;;;9.68;4.80;;;;;;;-148.14;100.00;65945.72;4980284;28;20560;-88
2022/07/25 02:34:57;;;;;;;11.82;4.88;;;;;;;-148.14;100.00;65945.72;4998376;28;20113;-89
2022/07/25 02:37:24;;;;;;;20.45;5.35;;;;;;;-148.14;100.00;65945.72;5004907;28;20031;-89
2022/07/25 02:39:49;;;;;;;12.68;5.05;;;;;;;-148.14;100.00;65945.72;4969173;28;20487;-87
2022/07/25 02:42:15;;;;;;;17.48;5.47;;;;;;;-148.14;100.00;65945.72;5002927;28;20030;-88
2022/07/25 02:44:41;;;;;;;13.70;5.15;;;;;;;-148.14;100.00;65945.72;5002835;28;20038;-87
2022/07/25 02:47:07;;;;;;;12.93;5.15;;;;;;;-148.14;100.00;65945.72;5017378;28;20045;-87
2022/07/25 02:49:33;;;;;;;15.07;5.18;;;;;;;-148.14;100.00;65945.72;5007013;28;20034;-86
2022/07/25 02:51:58;;;;;;;14.55;4.53;;;;;;;-148.14;100.00;65945.72;5007554;28;20032;-87
2022/07/25 02:54:24;;;;;;;11.50;4.65;;;;;;;-148.14;100.00;65945.72;5023820;28;20033;-87
2022/07/25 02:56:50;;;;;;;11.48;4.90;;;;;;;-148.14;100.00;65945.72;4988436;28;20025;-87
2022/07/25 02:59:16;;;;;;;12.25;5.13;;;;;;;-148.14;100.00;65945.72;5021030;28;20036;-86
2022/07/25 03:01:42;;;;;;;16.10;4.82;;;;;;;-148.14;100.00;65945.72;5006058;28;20033;-86
2022/07/25 03:04:11;;;;;;;13.07;5.10;;;;;;;-148.14;100.00;65945.72;5023204;28;21497;-86
2022/07/25 03:06:42;;;;;;;8.68;4.22;;;;;;;-148.14;100.00;65945.72;5019885;28;20620;-89
2022/07/25 03:09:11;;;;;;;14.32;4.63;;;;;;;-148.14;100.00;65945.72;5025354;28;20033;-88
2022/07/25 03:11:40;;;;;;;9.05;3.97;;;;;;;-148.14;100.00;65945.72;5030494;28;20112;-90
2022/07/25 03:14:11;;;;;;;10.65;4.47;;;;;;;-148.14;100.00;65945.72;5029027;28;20034;-85
2022/07/25 03:16:37;;;;;;;9.75;4.60;;;;;;;-148.14;100.00;65945.72;5008554;28;20061;-87
2022/07/25 03:19:03;;;;;;;15.38;5.18;;;;;;;-148.14;100.00;65945.72;5037093;28;20547;-88
2022/07/25 03:21:29;;;;;;;13.10;4.82;;;;;;;-148.14;100.00;65945.72;5035036;28;20078;-88
2022/07/25 03:23:56;;;;;;;9.70;4.95;;;;;;;-148.14;100.00;65945.72;5021919;28;20034;-88
2022/07/25 03:26:24;;;;;;;17.08;4.53;;;;;;;-148.14;100.00;65945.72;5040231;28;20052;-88
2022/07/25 03:28:50;;;;;;;13.20;5.00;;;;;;;-148.14;100.00;65945.72;5035773;28;20029;-87
2022/07/25 03:31:15;;;;;;;8.43;4.60;;;;;;;-148.14;100.00;65945.72;4989948;28;20029;-86
2022/07/25 03:33:41;;;;;;;9.55;4.65;;;;;;;-148.14;100.00;65945.72;5005554;28;20026;-85
2022/07/25 03:36:07;;;;;;;10.23;4.28;;;;;;;-148.14;100.00;65945.72;5025864;28;20380;-86
2022/07/25 03:38:32;;;;;;;9.40;4.40;;;;;;;-148.14;100.00;65945.72;5009157;28;20022;-86
2022/07/25 03:40:58;;;;;;;12.25;5.03;;;;;;;-148.14;100.00;65945.72;5020454;28;20430;-85
2022/07/25 03:43:24;;;;;;;12.98;4.57;;;;;;;-148.14;100.00;65945.72;5004677;28;20802;-85
2022/07/25 03:45:49;;;;;;;10.10;5.03;;;;;;;-148.14;100.00;65945.72;4988495;28;20052;-86
2022/07/25 03:48:15;;;;;;;13.48;4.72;;;;;;;-148.14;100.00;65945.72;4987803;28;20029;-89
2022/07/25 03:50:41;;;;;;;11.20;4.43;;;;;;;-148.14;100.00;65945.72;5008721;28;20029;-87
2022/07/25 03:53:07;;;;;;;9.27;4.38;;;;;;;-148.14;100.00;65945.72;4990866;28;20033;-88
2022/07/25 03:55:32;;;;;;;15.60;5.15;;;;;;;-148.14;100.00;65945.72;5021915;28;20038;-86
2022/07/25 03:57:58;;;;;;;9.05;4.32;;;;;;;-148.14;100.00;65945.72;5001562;28;20517;-87
2022/07/25 04:00:23;;;;;;;9.00;3.88;;;;;;;-148.14;100.00;65945.72;4990248;28;20500;-87
2022/07/25 04:02:49;;;;;;;12.75;4.55;;;;;;;-148.14;100.00;65945.72;5016632;28;20570;-87
2022/07/25 04:05:15;;;;;;;11.85;4.40;;;;;;;-148.14;100.00;65945.72;5024704;28;20025;-87
2022/07/25 04:07:42;;;;;;;10.40;3.95;;;;;;;-148.14;100.00;65945.72;5002449;28;20076;-87
2022/07/25 04:10:08;;;;;;;9.38;4.45;;;;;;;-148.14;100.00;65945.72;5024523;28;20026;-87
2022/07/25 04:12:39;;;;;;;11.32;4.47;;;;;;;-148.14;100.00;65945.72;5003527;28;20116;-87
2022/07/25 04:15:05;;;;;;;12.57;4.20;;;;;;;-148.14;100.00;65945.72;5025011;28;20388;-89
2022/07/25 04:17:33;;;;;;;8.55;4.22;;;;;;;-148.14;100.00;65945.72;5020560;28;20036;-88
2022/07/25 04:20:01;;;;;;;7.13;3.58;;;;;;;-148.14;100.00;65945.72;5021889;28;20026;-89
2022/07/25 04:22:35;;;;;;;11.30;5.07;;;;;;;-148.14;100.00;65945.72;5020542;28;20564;-87
2022/07/25 04:25:01;;;;;;;7.60;3.58;;;;;;;-148.14;100.00;65945.72;5022946;28;20064;-87
2022/07/25 04:27:27;;;;;;;9.90;3.85;;;;;;;-148.14;100.00;65945.72;5001778;28;20472;-87
2022/07/25 04:29:53;;;;;;;6.15;3.00;;;;;;;-148.14;100.00;65945.72;5007205;28;20113;-87
2022/07/25 04:32:19;;;;;;;14.25;3.30;;;;;;;-148.14;100.00;65945.72;5019683;28;20120;-87
2022/07/25 04:34:45;;;;;;;9.10;3.33;;;;;;;-148.14;100.00;65945.72;5023056;28;20109;-89
2022/07/25 04:37:21;;;;;;;6.40;3.17;;;;;;;-148.14;100.00;65945.72;5003404;28;20029;-89
2022/07/25 04:39:47;;;;;;;9.68;3.60;;;;;;;-148.14;100.00;65945.72;5008793;28;20030;-87
2022/07/25 04:42:12;;;;;;;7.85;2.92;;;;;;;-148.14;100.00;65945.72;5026966;28;20049;-86
2022/07/25 04:44:38;;;;;;;7.03;3.05;;;;;;;-148.14;100.00;65945.72;5007612;28;20050;-87
2022/07/25 04:47:04;;;;;;;10.27;3.38;;;;;;;-148.14;100.00;65945.72;5010368;28;20053;-87
2022/07/25 04:49:30;;;;;;;7.47;3.30;;;;;;;-148.14;100.00;65945.72;5020718;28;20025;-85
2022/07/25 04:51:55;;;;;;;7.45;2.90;;;;;;;-148.14;100.00;65945.72;5007464;28;20049;-85
2022/07/25 04:54:25;;;;;;;6.63;2.88;;;;;;;-148.14;100.00;65945.72;5025503;28;20033;-86
2022/07/25 04:56:51;;;;;;;9.70;2.75;;;;;;;-148.14;100.00;65945.72;5006818;28;20025;-87
2022/07/25 04:59:18;;;;;;;4.80;2.88;;;;;;;-148.14;100.00;65945.72;4991863;28;20034;-88
2022/07/25 05:01:45;;;;;;;7.22;3.10;;;;;;;-148.14;100.00;65945.72;5007863;28;20484;-88
2022/07/25 05:04:10;;;;;;;10.55;3.40;;;;;;;-148.14;100.00;65945.72;5004587;28;20025;-87
2022/07/25 05:06:36;;;;;;;7.30;3.10;;;;;;;-148.14;100.00;65945.72;5009569;28;20638;-85
2022/07/25 05:09:01;;;;;;;6.90;2.90;;;;;;;-148.14;100.00;65945.72;5008222;28;20441;-88
2022/07/25 05:11:28;;;;;;;4.70;2.42;;;;;;;-148.14;100.00;65945.72;5009177;28;20113;-87
2022/07/25 05:13:55;;;;;;;6.18;2.70;;;;;;;-148.14;100.00;65945.72;5024200;28;20044;-86
2022/07/25 05:16:24;;;;;;;8.30;2.47;;;;;;;-148.14;100.00;65945.72;5025395;28;20029;-88
2022/07/25 05:18:50;;;;;;;4.43;2.40;;;;;;;-148.14;100.00;65945.72;5008699;28;20546;-87
2022/07/25 05:21:20;;;;;;;7.85;2.63;;;;;;;-148.14;100.00;65945.72;5007493;28;20028;-87
2022/07/25 05:23:46;;;;;;;6.20;2.20;;;;;;;-148.14;100.00;65945.72;5025206;28;20033;-87
2022/07/25 05:26:12;;;;;;;3.65;2.05;;;;;;;-148.14;100.00;65945.72;5007966;28;20022;-87
2022/07/25 05:28:38;;;;;;;3.60;2.30;;;;;;;-148.14;100.00;65945.72;5028112;28;20025;-87
2022/07/25 05:31:04;;;;;;;5.15;2.35;;;;;;;-148.14;100.00;65945.72;4987956;28;20387;-86
2022/07/25 05:33:36;;;;;;;4.03;2.38;;;;;;;-148.14;100.00;65945.72;5024290;28;20032;-87
2022/07/25 05:36:04;;;;;;;5.85;2.10;;;;;;;-148.14;100.00;65945.72;5021850;28;20061;-86
2022/07/25 05:38:31;;;;;;;8.18;2.95;;;;;;;-148.14;100.00;65945.72;5004034;28;20045;-87
2022/07/25 05:40:58;;;;;;;6.80;2.75;;;;;;;-148.14;100.00;65945.72;5025365;28;20045;-88
2022/07/25 05:43:24;;;;;;;7.15;2.88;;;;;;;-148.14;100.00;65945.72;5024888;28;20041;-87
2022/07/25 05:45:52;;;;;;;6.93;3.42;;;;;;;-148.14;100.00;65945.72;5020308;28;20121;-87
2022/07/25 05:48:18;;;;;;;11.02;4.15;;;;;;;-148.14;100.00;65945.72;4988882;28;20476;-87
2022/07/25 05:50:44;;;;;;;10.25;3.63;;;;;;;-148.14;100.00;65945.72;5006321;28;20042;-87
2022/07/25 05:53:33;;;;;;;6.43;3.38;;;;;;;-148.14;100.00;65945.72;5022468;28;20054;-87
2022/07/25 05:55:59;;;;;;;11.63;3.22;;;;;;;-148.14;100.00;65945.72;5013458;28;20468;-86
2022/07/25 05:58:25;;;;;;;7.90;3.20;;;;;;;-148.14;100.00;65945.72;5023681;28;20025;-85
2022/07/25 06:00:51;;;;;;;5.35;3.10;;;;;;;-148.14;100.00;65945.72;5015267;28;20113;-86
2022/07/25 06:03:17;;;;;;;6.10;3.20;;;;;;;-148.14;100.00;65945.72;5022026;28;20521;-88
2022/07/25 06:05:47;;;;;;;9.18;3.42;;;;;;;-148.14;100.00;65945.72;5007066;28;20053;-88
2022/07/25 06:08:17;;;;;;;8.10;2.90;;;;;;;-148.14;100.00;65945.72;5024356;28;20108;-85
2022/07/25 06:10:43;;;;;;;5.60;2.90;;;;;;;-148.14;100.00;65945.72;5020652;28;20061;-88
2022/07/25 06:13:09;;;;;;;9.40;3.42;;;;;;;-148.14;100.00;65945.72;5005027;28;20025;-89
2022/07/25 06:15:35;;;;;;;5.70;2.80;;;;;;;-148.14;100.00;65945.72;4988295;28;20038;-89
2022/07/25 06:18:01;;;;;;;6.20;2.58;;;;;;;-148.14;100.00;65945.72;4992860;28;20463;-90
2022/07/25 06:20:30;;;;;;;6.25;3.10;;;;;;;-148.14;100.00;65945.72;5009246;28;20059;-89
2022/07/25 06:23:05;;;;;;;5.70;2.55;;;;;;;-148.14;100.00;65945.72;4991140;28;20037;-84
2022/07/25 06:25:30;;;;;;;4.15;2.72;;;;;;;-148.14;100.00;65945.72;4987596;28;20040;-88
2022/07/25 06:27:56;;;;;;;5.93;3.03;;;;;;;-148.14;100.00;65945.72;5001316;28;20050;-85
2022/07/25 06:30:21;;;;;;;4.07;2.50;;;;;;;-148.14;100.00;65945.72;5005833;28;20026;-86
2022/07/25 06:32:48;;;;;;;7.45;2.97;;;;;;;-148.14;100.00;65945.72;5030076;28;20439;-87
2022/07/25 06:35:14;;;;;;;4.95;2.42;;;;;;;-148.14;100.00;65945.72;5004983;28;20679;-86
2022/07/25 06:37:40;;;;;;;6.45;2.60;;;;;;;-148.14;100.00;65945.72;5003883;28;20030;-90
2022/07/25 06:40:08;;;;;;;5.47;2.47;;;;;;;-148.14;100.00;65945.72;4984327;28;20425;-85
2022/07/25 06:42:39;;;;;;;5.32;2.15;;;;;;;-148.14;100.00;65945.72;5021006;28;20038;-86
2022/07/25 06:45:08;;;;;;;6.15;2.47;;;;;;;-148.14;100.00;65945.72;5020554;28;20053;-87
2022/07/25 06:47:34;;;;;;;3.58;2.30;;;;;;;-148.14;100.00;65945.72;5001307;28;20045;-83
2022/07/25 06:50:00;;;;;;;7.03;2.33;;;;;;;-148.14;100.00;65945.72;5018460;28;20025;-84
2022/07/25 06:52:26;;;;;;;3.55;2.25;;;;;;;-148.14;100.00;65945.72;5016780;28;20028;-85
2022/07/25 06:54:53;;;;;;;5.22;2.00;;;;;;;-148.14;100.00;65945.72;5005091;28;20048;-84
2022/07/25 06:57:19;;;;;;;3.15;1.90;;;;;;;-148.14;100.00;65945.72;5004861;28;20530;-86
2022/07/25 06:59:45;;;;;;;4.30;1.73;;;;;;;-148.14;100.00;65945.72;5018876;28;20080;-86
2022/07/25 07:02:11;;;;;;;3.38;2.15;;;;;;;-148.14;100.00;65945.72;5009656;28;20034;-88
2022/07/25 07:04:40;;;;;;;2.92;1.77;;;;;;;-148.14;100.00;65945.72;5025340;28;20040;-85
2022/07/25 07:07:06;;;;;;;2.92;1.70;;;;;;;-148.14;100.00;65945.72;5006914;28;20018;-88
2022/07/25 07:09:32;;;;;;;4.47;1.75;;;;;;;-148.14;100.00;65945.72;5022888;28;20037;-86
2022/07/25 07:11:59;;;;;;;6.13;1.90;;;;;;;-148.14;100.00;65945.72;5021175;28;20025;-84
2022/07/25 07:14:24;;;;;;;5.05;2.55;;;;;;;-148.14;100.00;65945.72;5022111;28;20037;-87
2022/07/25 07:16:50;;;;;;;5.20;1.90;;;;;;;-148.14;100.00;65945.72;5016543;28;20558;-84
2022/07/25 07:19:16;;;;;;;4.10;2.08;;;;;;;-148.14;100.00;65945.72;5021895;28;20034;-84
2022/07/25 07:21:42;;;;;;;4.43;2.15;;;;;;;-148.14;100.00;65945.72;5022315;28;20392;-83
2022/07/25 07:24:09;;;;;;;3.17;2.15;;;;;;;-148.14;100.00;65945.72;5018079;28;20037;-86
2022/07/25 07:26:35;;;;;;;3.05;2.03;;;;;;;-148.14;100.00;65945.72;5021322;28;20526;-84
2022/07/25 07:29:02;;;;;;;7.05;2.85;;;;;;;-148.14;100.00;65945.72;5003983;28;20061;-85
2022/07/25 07:31:28;;;;;;;3.60;1.95;;;;;;;-148.14;100.00;65945.72;5001871;28;20114;-85
2022/07/25 07:33:54;;;;;;;5.05;2.25;;;;;;;-148.14;100.00;65945.72;5019189;28;20028;-87
2022/07/25 07:36:21;;;;;;;3.05;2.22;;;;;;;-148.14;100.00;65945.72;5022229;28;20120;-87
2022/07/25 07:38:48;;;;;;;3.28;2.10;;;;;;;-148.14;100.00;65945.72;4997950;28;20030;-85
2022/07/25 07:41:14;;;;;;;5.50;2.53;;;;;;;-148.14;100.00;65945.72;5018052;28;20033;-87
2022/07/25 07:43:40;;;;;;;4.55;2.53;;;;;;;-148.14;100.00;65945.72;5019807;28;20491;-83
2022/07/25 07:46:06;;;;;;;5.70;2.75;;;;;;;-148.14;100.00;65945.72;4986860;28;20050;-84
2022/07/25 07:48:32;;;;;;;3.42;2.75;;;;;;;-148.14;100.00;65945.72;5024254;28;20040;-84
2022/07/25 07:51:00;;;;;;;5.82;2.78;;;;;;;-148.14;100.00;65945.72;4989606;28;20029;-84
2022/07/25 07:55:42;;;;;;;4.47;2.80;;;;;;;-148.14;100.00;65945.72;5004611;28;20142;-82
2022/07/25 07:56:13;;;;;;;4.97;3.55;;;;;;;-148.14;100.00;65945.72;5020860;28;20025;-83
2022/07/25 07:58:39;;;;;;;4.07;3.67;;;;;;;-148.14;100.00;65945.72;5020576;28;20161;-82
2022/07/25 08:01:05;;;;;;;5.15;4.22;;;;;;;-148.14;100.00;65945.72;5021827;28;20053;-83
2022/07/25 08:03:31;;;;;;;6.43;5.82;;;;;;;-148.14;100.00;65945.72;5003851;28;20021;-83
2022/07/25 08:05:58;;;;;;;8.18;7.13;;;;;;;-148.14;100.00;65945.72;5004681;28;20030;-82
2022/07/25 08:08:24;;;;;;;9.07;7.15;;;;;;;-148.14;100.00;65945.72;5007908;28;20104;-81
2022/07/25 08:10:50;;;;;;;8.02;7.28;;;;;;;-148.14;100.00;65945.72;5022816;28;20033;-82
2022/07/25 08:13:19;;;;;;;9.68;8.13;;;;;;;-148.14;100.00;65945.72;5007859;28;20427;-85
2022/07/25 08:15:47;;;;;;;10.25;7.88;;;;;;;-148.14;100.00;65945.72;5019493;28;20476;-84
2022/07/25 08:18:13;;;;;;;11.90;8.90;;;;;;;-148.14;100.00;65945.72;5024190;28;20033;-84
2022/07/25 08:20:43;;;;;;;11.80;10.32;;;;;;;-148.14;100.00;65945.72;5002038;28;20040;-83
2022/07/25 08:23:18;;;;;;;13.43;10.98;;;;;;;-148.14;100.00;65945.72;5024838;28;20038;-82
2022/07/25 08:25:45;;;;;;;12.50;10.70;;;;;;;-148.14;100.00;65945.72;5028029;28;20037;-83
2022/07/25 08:28:12;;;;;;;15.05;11.07;;;;;;;-148.14;100.00;65945.72;5008054;28;20429;-83
2022/07/25 08:30:38;;;;;;;13.63;11.35;;;;;;;-148.14;100.00;65945.72;5008038;28;20033;-82
2022/07/25 08:33:12;;;;;;;14.20;11.80;;;;;;;-148.14;100.00;65945.72;5011683;28;20033;-83
2022/07/25 08:35:54;;;;;;;13.25;11.90;;;;;;;-148.14;100.00;65945.72;5023878;28;20037;-81
2022/07/25 08:38:22;;;;;;;13.93;12.52;;;;;;;-148.14;100.00;65945.72;5003321;28;20040;-83
2022/07/25 08:40:48;;;;;;;16.02;13.13;;;;;;;-148.14;100.00;65945.72;5010382;28;20087;-83
2022/07/25 08:43:42;;;;;;;14.82;13.32;;;;;;;-148.14;100.00;65945.72;5024929;28;20052;-84
2022/07/25 08:46:17;;;;;;;16.50;14.90;;;;;;;-148.14;100.00;65945.72;5007389;28;20045;-80
2022/07/25 08:48:45;;;;;;;17.35;15.35;;;;;;;-148.14;100.00;65945.72;5008413;28;20395;-81
2022/07/25 08:55:59;;;;;;;16.85;14.07;;;;;;;-148.14;100.00;65945.72;5019562;28;20508;-83
2022/07/25 08:58:29;;;;;;;14.65;13.18;;;;;;;-148.14;100.00;65945.72;5000606;28;20488;-81
2022/07/25 09:00:57;;;;;;;13.75;12.35;;;;;;;-148.14;100.00;65945.72;5022883;28;20032;-81
2022/07/25 09:03:22;;;;;;;12.43;10.82;;;;;;;-148.14;100.00;65945.72;5009698;28;20064;-81
2022/07/25 09:05:48;;;;;;;13.40;12.18;;;;;;;-148.14;100.00;65945.72;5028058;28;20135;-80
2022/07/25 09:08:16;;;;;;;13.90;10.73;;;;;;;-148.14;100.00;65945.72;5025201;28;20049;-80
2022/07/25 09:10:48;;;;;;;11.55;10.30;;;;;;;-148.14;100.00;65945.72;5011514;28;20044;-81
2022/07/25 09:13:15;;;;;;;17.75;10.55;;;;;;;-148.14;100.00;65945.72;5024087;28;20081;-82
2022/07/25 09:15:50;;;;;;;10.95;9.57;;;;;;;-148.14;100.00;65945.72;5024540;28;20037;-82
2022/07/25 09:18:17;;;;;;;12.80;10.82;;;;;;;-148.14;100.00;65945.72;5025634;28;20037;-80
2022/07/25 09:20:49;;;;;;;11.23;10.13;;;;;;;-148.14;100.00;65945.72;5021401;28;20475;-81
2022/07/25 09:23:30;;;;;;;10.27;9.38;;;;;;;-148.14;100.00;65945.72;5021845;28;20048;-80
2022/07/25 09:26:10;;;;;;;10.48;9.65;;;;;;;-148.14;100.00;65945.72;5014974;28;20087;-81
2022/07/25 09:28:48;;;;;;;9.63;8.77;;;;;;;-148.14;100.00;65945.72;5012523;28;20231;-82
2022/07/25 09:31:16;;;;;;;10.77;9.77;;;;;;;-148.14;100.00;65945.72;5022081;28;20087;-81
2022/07/25 09:33:58;;;;;;;10.70;9.63;;;;;;;-148.14;100.00;65945.72;5024420;28;20026;-79
2022/07/25 09:36:24;;;;;;;11.20;10.20;;;;;;;-148.14;100.00;65945.72;5028526;28;20038;-80
2022/07/25 09:38:53;;;;;;;9.18;8.38;;;;;;;-148.14;100.00;65945.72;4991797;28;20026;-80
2022/07/25 09:41:19;;;;;;;9.07;8.18;;;;;;;-148.14;100.00;65945.72;5024864;28;20030;-79
2022/07/25 09:43:45;;;;;;;7.90;6.15;;;;;;;-148.14;100.00;65945.72;5017224;28;20052;-79
2022/07/25 09:46:11;;;;;;;7.88;7.18;;;;;;;-148.14;100.00;65945.72;5022043;28;20025;-80
2022/07/25 09:48:44;;;;;;;8.10;7.40;;;;;;;-148.14;100.00;65945.72;5022879;28;20037;-80
2022/07/25 09:51:11;;;;;;;8.32;7.10;;;;;;;-148.14;100.00;65945.72;5024931;28;20380;-80
2022/07/25 09:54:27;;;;;;;8.00;5.60;;;;;;;-148.14;100.00;65945.72;5028342;28;20361;-80
2022/07/25 09:56:52;;;;;;;9.50;8.80;;;;;;;-148.14;100.00;65945.72;4964210;28;20062;-80
2022/07/25 09:59:18;;;;;;;9.63;8.82;;;;;;;-148.14;100.00;65945.72;4981825;28;20472;-80
2022/07/25 10:02:09;;;;;;;9.27;8.48;;;;;;;-148.14;100.00;65945.72;5002075;28;20045;-79
2022/07/25 10:05:02;;;;;;;10.00;9.20;;;;;;;-148.14;100.00;65945.72;5004053;28;20045;-79
2022/07/25 10:07:35;;;;;;;10.48;9.57;;;;;;;-148.14;100.00;65945.72;5008586;28;20033;-79
2022/07/25 10:10:01;;;;;;;9.75;8.95;;;;;;;-148.14;100.00;65945.72;5008752;28;20361;-80
2022/07/25 10:12:26;;;;;;;9.23;8.20;;;;;;;-148.14;100.00;65945.72;5006138;28;20033;-80
2022/07/25 10:15:12;;;;;;;8.52;7.28;;;;;;;-148.14;100.00;65945.72;5006401;28;20025;-79
2022/07/25 10:17:40;;;;;;;7.65;6.80;;;;;;;-148.14;100.00;65945.72;5005557;28;20044;-79
2022/07/25 10:20:09;;;;;;;5.75;5.35;;;;;;;-148.14;100.00;65945.72;4999987;28;20022;-81
2022/07/25 10:22:43;;;;;;;5.88;5.38;;;;;;;-148.14;100.00;65945.72;5001379;28;20089;-79
2022/07/25 10:25:18;;;;;;;5.53;5.13;;;;;;;-148.14;100.00;65945.72;5017703;28;20037;-80
2022/07/25 10:27:51;;;;;;;3.88;3.58;;;;;;;-148.14;100.00;65945.72;4997389;28;20064;-80
2022/07/25 10:30:48;;;;;;;4.18;3.88;;;;;;;-148.14;100.00;65945.72;5023484;28;20033;-79
2022/07/25 10:33:17;;;;;;;3.47;3.20;;;;;;;-148.14;100.00;65945.72;4990656;28;20065;-79
2022/07/25 10:35:44;;;;;;;2.00;1.90;;;;;;;-148.14;100.00;65945.72;5005068;28;20116;-79
2022/07/25 10:38:10;;;;;;;2.95;2.25;;;;;;;-148.14;100.00;65945.72;5024890;28;20498;-79
2022/07/25 10:40:42;;;;;;;2.17;1.98;;;;;;;-148.14;100.00;65945.72;5028268;28;20036;-79
2022/07/25 10:43:11;;;;;;;3.40;1.90;;;;;;;-148.14;100.00;65945.72;5003211;28;20046;-78
2022/07/25 10:45:43;;;;;;;2.20;1.90;;;;;;;-148.14;100.00;65945.72;5018745;28;20037;-80
2022/07/25 10:48:11;;;;;;;4.47;2.00;;;;;;;-148.14;100.00;65945.72;5002398;28;20033;-80
2022/07/25 10:50:49;;;;;;;2.38;1.70;;;;;;;-148.14;100.00;65945.72;5019963;28;20033;-79
2022/07/25 10:53:25;;;;;;;2.85;2.10;;;;;;;-148.14;100.00;65945.72;5027052;28;20029;-79
2022/07/25 10:55:56;;;;;;;3.30;1.90;;;;;;;-148.14;100.00;65945.72;5001405;28;20030;-78
2022/07/25 10:58:22;;;;;;;3.85;2.20;;;;;;;-148.14;100.00;65945.72;4985350;28;20049;-78
2022/07/25 11:00:59;;;;;;;2.30;2.10;;;;;;;-148.14;100.00;65945.72;5022276;28;20495;-79
2022/07/25 11:03:25;;;;;;;2.20;2.00;;;;;;;-148.14;100.00;65945.72;5020608;28;20030;-81
2022/07/25 11:05:53;;;;;;;2.25;2.03;;;;;;;-148.14;100.00;65945.72;5006140;28;20034;-80
2022/07/25 11:08:30;;;;;;;2.53;2.00;;;;;;;-148.14;100.00;65945.72;5022395;28;20065;-78
2022/07/25 11:10:56;;;;;;;2.67;2.35;;;;;;;-148.14;100.00;65945.72;5019685;28;20021;-79
2022/07/25 11:13:22;;;;;;;1.58;1.48;;;;;;;-148.14;100.00;65945.72;5022954;28;20388;-78
2022/07/25 11:15:48;;;;;;;1.42;1.30;;;;;;;-148.14;100.00;65945.72;5003357;28;20041;-79